.
WxDataArchive / Data Records for 2008-09-25
2008-09-24 September 2008 2008-09-26

Data Records for Thursday, 25 September 2008

Time	Temp	Chill	HIndex	Humid	Dewpt	 Wind 	HiWind	WindDir	Rain 	Barom 
-----	----	-----	------	-----	-----	------	------	-------	-----	----- 
00:00	58.6	58.6	58.6	86	54.4	0	0	---	0.00	30.240 
00:05	58.4	58.4	58.4	87	54.5	0	0	---	0.00	30.239 
00:10	58.4	58.4	58.4	87	54.5	0	0	---	0.00	30.241 
00:15	58.3	58.3	58.3	88	54.8	0	0	---	0.00	30.241 
00:20	58.1	58.1	58.1	88	54.6	0	0	---	0.00	30.241 
00:25	58.0	58.0	58.0	87	54.1	0	0	---	0.00	30.240 
00:30	57.8	57.8	57.8	87	54.0	0	0	---	0.00	30.240 
00:35	57.8	57.8	57.8	86	53.6	0	0	---	0.00	30.240 
00:40	57.6	57.6	57.6	86	53.4	0	0	---	0.00	30.240 
00:45	57.5	57.5	57.5	86	53.3	0	0	---	0.00	30.240 
00:50	57.5	57.5	57.5	86	53.3	0	0	---	0.00	30.239 
00:55	57.2	57.2	57.2	86	53.0	0	0	---	0.00	30.239 
01:00	57.0	57.0	57.0	85	52.5	0	0	---	0.00	30.238 
01:05	56.9	56.9	56.9	85	52.4	0	0	---	0.00	30.239 
01:10	56.7	56.7	56.7	85	52.2	0	0	---	0.00	30.238 
01:15	56.6	56.6	56.6	85	52.1	0	0	---	0.00	30.238 
01:20	56.6	56.6	56.6	86	52.5	0	0	---	0.00	30.236 
01:25	56.5	56.5	56.5	86	52.4	0	0	---	0.00	30.237 
01:30	56.3	56.3	56.3	86	52.2	0	0	---	0.00	30.236 
01:35	56.3	56.3	56.3	86	52.2	0	0	---	0.00	30.237 
01:40	56.2	56.2	56.2	86	52.1	0	0	---	0.00	30.236 
01:45	56.2	56.2	56.2	86	52.1	0	0	---	0.00	30.236 
01:50	56.0	56.0	56.0	86	51.9	0	0	---	0.00	30.237 
01:55	55.9	55.9	55.9	86	51.8	0	0	---	0.00	30.237 
02:00	55.7	55.7	55.7	86	51.6	0	0	---	0.00	30.236 
02:05	55.6	55.6	55.6	87	51.8	0	0	---	0.00	30.237 
02:10	55.4	55.4	55.4	87	51.6	0	0	---	0.00	30.239 
02:15	55.3	55.3	55.3	87	51.5	0	0	---	0.00	30.239 
02:20	55.1	55.1	55.1	87	51.3	0	0	---	0.00	30.240 
02:25	55.0	55.0	55.0	88	51.5	0	0	---	0.00	30.240 
02:30	54.8	54.8	54.8	88	51.3	0	0	---	0.00	30.237 
02:35	54.7	54.7	54.7	88	51.2	0	0	---	0.00	30.236 
02:40	54.5	54.5	54.5	89	51.3	0	0	---	0.00	30.234 
02:45	54.4	54.4	54.4	89	51.2	0	0	---	0.00	30.236 
02:50	54.2	54.2	54.2	89	51.0	0	0	---	0.00	30.236 
02:55	54.1	54.1	54.1	90	51.2	0	0	---	0.00	30.234 
03:00	54.1	54.1	54.1	90	51.2	0	0	---	0.00	30.230 
03:05	53.9	53.9	53.9	90	51.0	0	0	---	0.00	30.229 
03:10	53.8	53.8	53.8	90	50.9	0	0	---	0.00	30.229 
03:15	53.6	53.6	53.6	91	51.0	0	0	---	0.00	30.229 
03:20	53.6	53.6	53.6	91	51.0	0	0	---	0.00	30.229 
03:25	53.5	53.5	53.5	91	50.9	0	0	---	0.00	30.229 
03:30	53.3	53.3	53.3	91	50.7	0	0	---	0.00	30.229 
03:35	53.3	53.3	53.3	91	50.7	0	0	---	0.00	30.230 
03:40	53.2	53.2	53.2	92	50.9	0	0	---	0.00	30.230 
03:45	53.1	53.1	53.1	92	50.8	0	0	---	0.00	30.235 
03:50	53.1	53.1	53.1	92	50.8	0	0	---	0.00	30.235 
03:55	52.9	52.9	52.9	92	50.6	0	0	---	0.00	30.238 
04:00	52.9	52.9	52.9	92	50.6	0	0	---	0.00	30.240 
04:05	52.8	52.8	52.8	92	50.5	0	0	---	0.00	30.244 
04:10	52.8	52.8	52.8	92	50.5	0	0	---	0.00	30.245 
04:15	52.6	52.6	52.6	92	50.3	0	0	---	0.00	30.245 
04:20	52.5	52.5	52.5	92	50.2	0	0	---	0.00	30.246 
04:25	52.5	52.5	52.5	93	50.5	0	0	---	0.00	30.247 
04:30	52.5	52.5	52.5	93	50.5	0	0	---	0.00	30.247 
04:35	52.3	52.3	52.3	93	50.3	0	0	---	0.00	30.248 
04:40	52.3	52.3	52.3	93	50.3	0	0	---	0.00	30.249 
04:45	52.3	52.3	52.3	93	50.3	0	0	---	0.00	30.252 
04:50	52.3	52.3	52.3	93	50.3	0	0	---	0.00	30.255 
04:55	52.2	52.2	52.2	94	50.5	0	0	---	0.00	30.256 
05:00	52.2	52.2	52.2	94	50.5	0	0	---	0.00	30.256 
05:05	52.0	52.0	52.0	94	50.3	0	0	---	0.00	30.261 
05:10	51.9	51.9	51.9	94	50.2	0	0	---	0.00	30.261 
05:15	51.9	51.9	51.9	94	50.2	0	0	---	0.00	30.264 
05:20	51.7	51.7	51.7	94	50.0	0	0	---	0.00	30.265 
05:25	51.6	51.6	51.6	94	49.9	0	0	---	0.00	30.266 
05:30	51.6	51.6	51.6	94	49.9	0	0	---	0.00	30.265 
05:35	51.4	51.4	51.4	94	49.7	0	0	---	0.00	30.266 
05:40	51.4	51.4	51.4	94	49.7	0	0	---	0.00	30.266 
05:45	51.3	51.3	51.3	94	49.6	0	0	---	0.00	30.266 
05:50	51.3	51.3	51.3	94	49.6	0	0	---	0.00	30.267 
05:55	51.1	51.1	51.1	94	49.4	0	0	---	0.00	30.269 
06:00	51.1	51.1	51.1	94	49.4	0	0	---	0.00	30.273 
06:05	51.0	51.0	51.0	94	49.3	0	0	---	0.00	30.280 
06:10	50.8	50.8	50.8	94	49.1	0	0	---	0.00	30.283 
06:15	50.8	50.8	50.8	94	49.1	0	0	---	0.00	30.285 
06:20	50.8	50.8	50.8	95	49.4	0	0	---	0.00	30.285 
06:25	50.8	50.8	50.8	95	49.4	0	0	---	0.00	30.285 
06:30	50.7	50.7	50.7	95	49.3	0	0	---	0.00	30.287 
06:35	50.7	50.7	50.7	95	49.3	0	0	---	0.00	30.288 
06:40	50.8	50.8	50.8	95	49.4	0	0	---	0.00	30.288 
06:45	50.8	50.8	50.8	95	49.4	0	0	---	0.00	30.290 
06:50	51.0	51.0	51.0	95	49.6	0	0	---	0.00	30.292 
06:55	51.0	51.0	51.0	95	49.6	0	0	---	0.00	30.295 
07:00	51.0	51.0	51.0	95	49.6	0	0	---	0.00	30.297 
07:05	51.1	51.1	51.1	95	49.7	0	0	---	0.00	30.302 
07:10	51.4	51.4	51.4	95	50.0	0	0	---	0.00	30.302 
07:15	51.7	51.7	51.7	96	50.6	0	0	---	0.00	30.303 
07:20	52.2	52.2	52.2	96	51.1	0	0	---	0.00	30.304 
07:25	52.5	52.5	52.5	96	51.4	0	0	---	0.00	30.305 
07:30	52.9	52.9	52.9	96	51.8	0	0	---	0.00	30.304 
07:35	53.3	53.3	53.3	96	52.2	0	1	68	0.00	30.304 
07:40	53.9	53.9	53.9	96	52.8	0	0	---	0.00	30.302 
07:45	54.2	54.2	54.2	95	52.8	0	2	68	0.00	30.302 
07:50	54.8	54.8	54.8	94	53.1	0	1	68	0.00	30.302 
07:55	55.4	55.4	55.4	93	53.4	0	0	---	0.00	30.302 
08:00	55.9	55.9	55.9	91	53.3	0	1	68	0.00	30.301 
08:05	56.6	56.6	56.6	89	53.4	0	1	68	0.00	30.303 
08:10	57.2	57.2	57.2	86	53.0	0	2	68	0.00	30.303 
08:15	58.0	58.0	58.0	81	52.2	1	3	68	0.00	30.303 
08:20	58.7	58.7	58.7	79	52.2	0	2	68	0.00	30.301 
08:25	59.3	59.3	59.3	78	52.4	1	3	68	0.00	30.301 
08:30	59.8	59.8	59.8	77	52.6	0	2	68	0.00	30.301 
08:35	60.1	60.1	60.1	77	52.9	0	1	68	0.00	30.300 
08:40	60.5	60.5	60.5	76	52.9	1	2	68	0.00	30.301 
08:45	61.0	61.0	61.0	75	53.0	0	2	68	0.00	30.299 
08:50	61.6	61.6	61.6	74	53.2	0	1	68	0.00	30.299 
08:55	62.3	62.3	62.3	71	52.8	1	2	68	0.00	30.300 
09:00	62.9	62.9	62.9	72	53.7	0	2	68	0.00	30.299 
09:05	63.4	63.4	63.4	70	53.4	1	2	68	0.00	30.302 
09:10	64.0	64.0	64.0	69	53.6	1	4	68	0.00	30.303 
09:15	64.7	64.7	64.7	69	54.3	0	2	68	0.00	30.302 
09:20	65.6	65.6	65.6	66	53.9	1	3	68	0.00	30.300 
09:25	66.6	66.6	66.6	65	54.5	0	2	68	0.00	30.301 
09:30	67.3	67.3	67.3	62	53.8	0	2	68	0.00	30.300 
09:35	68.3	68.3	68.3	60	53.9	1	3	90	0.00	30.300 
09:40	69.1	69.1	69.1	58	53.7	0	3	90	0.00	30.297 
09:45	69.9	69.9	69.9	58	54.4	0	2	90	0.00	30.296 
09:50	70.6	70.6	70.6	58	55.1	1	4	90	0.00	30.294 
09:55	71.1	71.1	71.1	56	54.6	0	2	90	0.00	30.293 
10:00	71.8	71.8	71.8	56	55.2	0	1	90	0.00	30.292 
10:05	72.1	72.1	72.1	55	55.0	1	3	90	0.00	30.292 
10:10	72.7	72.7	72.7	54	55.1	0	2	90	0.00	30.292 
10:15	73.2	73.2	73.2	54	55.5	0	2	90	0.00	30.293 
10:20	73.5	73.5	73.5	51	54.2	1	4	112	0.00	30.292 
10:25	73.9	73.9	73.9	50	54.1	1	2	112	0.00	30.290 
10:30	73.9	73.9	73.9	52	55.1	0	4	112	0.00	30.288 
10:35	74.2	74.2	74.2	49	53.8	1	3	112	0.00	30.288 
10:40	74.9	74.9	74.9	49	54.4	0	2	112	0.00	30.283 
10:45	75.3	75.3	77.7	48	54.2	0	2	225	0.00	30.278 
10:50	75.8	75.8	78.0	49	55.3	0	3	180	0.00	30.277 
10:55	76.3	76.3	78.2	48	55.1	1	4	270	0.00	30.276 
11:00	76.3	76.3	78.2	48	55.1	0	2	68	0.00	30.276 
11:05	76.8	76.8	78.4	46	54.4	1	2	68	0.00	30.275 
11:10	76.8	76.8	78.3	43	52.6	2	4	90	0.00	30.274 
11:15	76.7	76.7	78.3	45	53.7	1	3	90	0.00	30.273 
11:20	77.0	77.0	78.4	44	53.4	1	2	90	0.00	30.272 
11:25	77.4	77.4	78.5	42	52.5	0	2	90	0.00	30.272 
11:30	77.4	77.4	78.6	43	53.1	2	6	90	0.00	30.271 
11:35	77.2	77.2	78.5	43	52.9	2	5	90	0.00	30.272 
11:40	77.2	77.2	78.5	43	52.9	1	5	90	0.00	30.270 
11:45	77.6	77.6	78.6	41	52.0	1	4	90	0.00	30.268 
11:50	78.1	78.1	78.9	43	53.8	1	3	112	0.00	30.266 
11:55	78.3	78.3	78.8	39	51.3	1	3	112	0.00	30.263 
12:00	77.7	77.7	78.5	39	50.7	3	7	90	0.00	30.264 
12:05	77.4	77.4	78.6	43	53.1	2	5	90	0.00	30.264 
12:10	77.4	77.4	78.4	40	51.2	1	3	90	0.00	30.261 
12:15	77.7	77.7	78.6	40	51.4	1	4	90	0.00	30.260 
12:20	77.9	77.9	78.7	41	52.3	2	9	90	0.00	30.260 
12:25	78.5	78.5	78.9	39	51.5	1	4	90	0.00	30.260 
12:30	78.6	78.6	78.7	35	48.6	3	6	90	0.00	30.259 
12:35	78.6	78.6	79.0	40	52.2	2	5	112	0.00	30.258 
12:40	78.8	78.8	79.0	38	51.0	0	2	68	0.00	30.257 
12:45	79.2	79.2	79.3	39	52.1	1	5	90	0.00	30.255 
12:50	79.4	79.4	79.4	38	51.6	1	2	90	0.00	30.250 
12:55	79.4	79.4	79.4	38	51.6	2	5	112	0.00	30.246 
13:00	79.0	79.0	79.0	36	49.7	3	6	90	0.00	30.245 
13:05	78.8	78.8	79.0	37	50.3	1	3	90	0.00	30.245 
13:10	78.8	78.8	79.0	38	51.0	2	6	90	0.00	30.244 
13:15	79.0	79.0	79.1	37	50.5	1	2	112	0.00	30.243 
13:20	79.4	79.4	79.2	35	49.3	1	4	112	0.00	30.241 
13:25	79.8	79.8	79.4	35	49.7	1	3	112	0.00	30.239 
13:30	79.8	79.8	79.4	35	49.7	2	6	112	0.00	30.236 
13:35	79.8	79.8	79.1	31	46.5	1	5	112	0.00	30.234 
13:40	79.9	79.9	79.4	34	49.0	1	3	90	0.00	30.232 
13:45	79.9	79.9	79.3	32	47.4	2	6	90	0.00	30.229 
13:50	79.9	79.9	79.2	31	46.5	1	5	112	0.00	30.228 
13:55	79.9	79.9	79.3	33	48.2	1	5	112	0.00	30.227 
14:00	80.1	80.1	79.5	34	49.2	1	4	112	0.00	30.227 
14:05	80.1	80.1	79.5	33	48.4	2	4	112	0.00	30.228 
14:10	79.9	79.9	79.5	35	49.8	2	5	90	0.00	30.227 
14:15	80.1	80.1	79.5	34	49.2	2	5	90	0.00	30.225 
14:20	80.1	80.1	79.4	32	47.6	1	5	112	0.00	30.224 
14:25	80.1	80.1	79.2	29	44.9	2	7	112	0.00	30.222 
14:30	80.1	80.1	79.2	30	45.8	2	5	90	0.00	30.221 
14:35	80.1	80.1	79.2	29	44.9	3	7	135	0.00	30.219 
14:40	79.9	79.9	79.1	30	45.7	2	6	90	0.00	30.217 
14:45	80.1	80.1	79.3	31	46.7	1	4	90	0.00	30.216 
14:50	80.3	80.3	79.2	28	44.2	2	7	90	0.00	30.216 
14:55	80.3	80.3	79.2	28	44.2	2	8	90	0.00	30.215 
15:00	80.3	80.3	79.2	28	44.2	2	5	90	0.00	30.214 
15:05	80.5	80.5	79.4	28	44.4	2	4	90	0.00	30.213 
15:10	80.5	80.5	79.4	29	45.3	2	4	112	0.00	30.213 
15:15	80.5	80.5	79.4	29	45.3	1	5	112	0.00	30.212 
15:20	80.3	80.3	79.5	32	47.7	1	5	90	0.00	30.212 
15:25	80.3	80.3	79.4	30	46.0	1	4	112	0.00	30.211 
15:30	80.3	80.3	79.4	30	46.0	2	6	112	0.00	30.206 
15:35	80.3	80.3	79.2	28	44.2	1	4	112	0.00	30.206 
15:40	80.1	80.1	79.4	32	47.6	2	4	90	0.00	30.207 
15:45	79.9	79.9	79.1	30	45.7	2	5	112	0.00	30.207 
15:50	79.9	79.9	79.1	30	45.7	2	5	90	0.00	30.204 
15:55	79.8	79.8	79.1	30	45.6	2	5	112	0.00	30.202 
16:00	79.9	79.9	79.1	30	45.7	2	5	90	0.00	30.200 
16:05	79.8	79.8	79.1	30	45.6	2	5	112	0.00	30.200 
16:10	79.8	79.8	79.1	31	46.5	1	3	112	0.00	30.199 
16:15	79.8	79.8	78.9	28	43.8	1	6	112	0.00	30.199 
16:20	79.8	79.8	78.9	27	42.8	2	6	112	0.00	30.198 
16:25	79.8	79.8	79.1	30	45.6	2	5	90	0.00	30.196 
16:30	79.6	79.6	78.8	28	43.6	1	4	112	0.00	30.195 
16:35	79.6	79.6	78.9	29	44.5	1	5	112	0.00	30.192 
16:40	79.4	79.4	78.7	28	43.4	2	4	112	0.00	30.192 
16:45	79.2	79.2	78.7	30	45.1	2	4	90	0.00	30.195 
16:50	79.2	79.2	78.7	29	44.2	2	5	90	0.00	30.194 
16:55	79.2	79.2	78.8	31	45.9	1	5	90	0.00	30.194 
17:00	78.8	78.8	78.5	30	44.7	1	3	90	0.00	30.192 
17:05	78.8	78.8	78.5	30	44.7	1	5	68	0.00	30.192 
17:10	78.6	78.6	78.4	30	44.6	2	4	112	0.00	30.193 
17:15	78.5	78.5	78.4	30	44.5	2	5	90	0.00	30.195 
17:20	78.5	78.5	78.5	32	46.2	1	3	90	0.00	30.192 
17:25	78.1	78.1	78.3	32	45.8	1	3	90	0.00	30.195 
17:30	77.9	77.9	78.3	33	46.5	1	4	90	0.00	30.195 
17:35	77.7	77.7	78.2	33	46.3	1	3	90	0.00	30.195 
17:40	77.4	77.4	78.0	32	45.2	1	3	90	0.00	30.195 
17:45	77.2	77.2	78.0	34	46.6	1	4	90	0.00	30.192 
17:50	76.8	76.8	77.8	33	45.5	1	2	90	0.00	30.193 
17:55	76.5	76.5	77.8	35	46.8	0	2	68	0.00	30.191 
18:00	76.0	76.0	77.5	34	45.6	0	2	68	0.00	30.192 
18:05	75.4	75.4	77.3	34	45.1	0	2	68	0.00	30.190 
18:10	75.1	75.1	77.2	34	44.8	0	2	68	0.00	30.190 
18:15	74.6	74.6	74.6	35	45.1	0	2	68	0.00	30.190 
18:20	74.2	74.2	74.2	36	45.5	0	2	68	0.00	30.191 
18:25	73.7	73.7	73.7	37	45.8	0	1	68	0.00	30.190 
18:30	73.2	73.2	73.2	39	46.7	0	1	68	0.00	30.189 
18:35	72.7	72.7	72.7	39	46.3	0	0	---	0.00	30.189 
18:40	72.0	72.0	72.0	39	45.7	0	0	---	0.00	30.191 
18:45	71.3	71.3	71.3	40	45.7	0	0	---	0.00	30.191 
18:50	70.6	70.6	70.6	41	45.7	0	0	---	0.00	30.191 
18:55	70.1	70.1	70.1	43	46.6	0	1	68	0.00	30.193 
19:00	69.6	69.6	69.6	45	47.3	0	0	---	0.00	30.196 
19:05	69.3	69.3	69.3	45	47.0	0	1	68	0.00	30.195 
19:10	69.3	69.3	69.3	45	47.0	0	1	68	0.00	30.196 
19:15	69.6	69.6	69.6	45	47.3	1	3	112	0.00	30.197 
19:20	69.8	69.8	69.8	45	47.5	1	3	112	0.00	30.196 
19:25	69.9	69.9	69.9	46	48.2	0	2	112	0.00	30.197 
19:30	69.9	69.9	69.9	47	48.7	0	2	112	0.00	30.198 
19:35	69.8	69.8	69.8	47	48.6	0	4	112	0.00	30.201 
19:40	69.6	69.6	69.6	48	49.0	0	3	90	0.00	30.202 
19:45	69.3	69.3	69.3	49	49.3	0	1	90	0.00	30.204 
19:50	68.9	68.9	68.9	49	48.9	0	1	90	0.00	30.204 
19:55	68.6	68.6	68.6	50	49.2	0	3	90	0.00	30.204 
20:00	68.4	68.4	68.4	51	49.6	0	2	68	0.00	30.205 
20:05	68.1	68.1	68.1	52	49.8	1	3	68	0.00	30.201 
20:10	67.9	67.9	67.9	53	50.1	0	4	68	0.00	30.201 
20:15	67.8	67.8	67.8	54	50.5	1	3	112	0.00	30.200 
20:20	67.6	67.6	67.6	54	50.4	2	4	112	0.00	30.200 
20:25	67.6	67.6	67.6	55	50.8	1	3	112	0.00	30.200 
20:30	67.3	67.3	67.3	56	51.1	0	2	112	0.00	30.200 
20:35	66.9	66.9	66.9	57	51.2	0	2	112	0.00	30.201 
20:40	66.8	66.8	66.8	57	51.1	0	1	112	0.00	30.202 
20:45	66.4	66.4	66.4	58	51.2	0	3	112	0.00	30.203 
20:50	66.3	66.3	66.3	58	51.1	0	3	112	0.00	30.204 
20:55	66.0	66.0	66.0	59	51.3	0	2	112	0.00	30.208 
21:00	65.6	65.6	65.6	60	51.3	0	1	112	0.00	30.209 
21:05	65.3	65.3	65.3	61	51.5	0	1	112	0.00	30.201 
21:10	65.0	65.0	65.0	62	51.7	0	1	112	0.00	30.204 
21:15	64.7	64.7	64.7	62	51.4	1	2	112	0.00	30.204 
21:20	64.5	64.5	64.5	63	51.6	0	2	112	0.00	30.203 
21:25	64.2	64.2	64.2	63	51.3	1	3	112	0.00	30.202 
21:30	64.0	64.0	64.0	63	51.1	1	5	90	0.00	30.201 
21:35	63.9	63.9	63.9	64	51.5	1	3	112	0.00	30.201 
21:40	63.7	63.7	63.7	65	51.7	0	2	112	0.00	30.203 
21:45	63.4	63.4	63.4	65	51.4	0	3	112	0.00	30.204 
21:50	63.1	63.1	63.1	65	51.1	0	1	112	0.00	30.202 
21:55	62.9	62.9	62.9	66	51.4	0	0	---	0.00	30.201 
22:00	62.4	62.4	62.4	67	51.3	0	1	112	0.00	30.201 
22:05	62.3	62.3	62.3	68	51.6	0	2	112	0.00	30.196 
22:10	62.1	62.1	62.1	68	51.4	0	2	112	0.00	30.197 
22:15	62.0	62.0	62.0	68	51.3	0	0	---	0.00	30.197 
22:20	61.8	61.8	61.8	69	51.5	0	0	---	0.00	30.196 
22:25	61.5	61.5	61.5	69	51.2	0	0	---	0.00	30.197 
22:30	61.2	61.2	61.2	70	51.3	0	0	---	0.00	30.197 
22:35	60.9	60.9	60.9	71	51.4	0	0	---	0.00	30.196 
22:40	60.7	60.7	60.7	71	51.2	0	0	---	0.00	30.195 
22:45	60.5	60.5	60.5	72	51.4	0	1	112	0.00	30.194 
22:50	60.5	60.5	60.5	72	51.4	0	1	112	0.00	30.194 
22:55	60.7	60.7	60.7	72	51.6	0	1	112	0.00	30.193 
23:00	60.9	60.9	60.9	72	51.8	1	3	112	0.00	30.191 
23:05	61.0	61.0	61.0	72	51.9	0	3	112	0.00	30.187 
23:10	61.0	61.0	61.0	72	51.9	0	1	112	0.00	30.187 
23:15	60.9	60.9	60.9	72	51.8	0	0	---	0.00	30.185 
23:20	60.7	60.7	60.7	73	52.0	0	0	---	0.00	30.187 
23:25	60.2	60.2	60.2	74	51.9	0	0	---	0.00	30.187 
23:30	59.9	59.9	59.9	75	52.0	0	1	112	0.00	30.186 
23:35	59.8	59.8	59.8	76	52.2	0	0	---	0.00	30.185 
23:40	59.5	59.5	59.5	77	52.3	0	0	---	0.00	30.181 
23:45	59.5	59.5	59.5	79	53.0	0	2	112	0.00	30.177 
23:50	59.8	59.8	59.8	78	52.9	0	1	112	0.00	30.177 
23:55	59.9	59.9	59.9	78	53.0	0	2	112	0.00	30.177 

CoCoRaHS
IN-AL-39
A2 Web Hosting
Creative Commons License
GoDaddy
Look for:

loaded 2017-12-10 21:39:59 • last modified 2010-11-18 10:43:29
Privacy PolicyDisclaimer
• wx.awcolley.com is powered by PmWiki v.2002016 •
• all content (unless otherwise noted) © 2017 A W Colley